createdAt,value
2023-03-22T00:00:35.391Z,28.63
2023-03-22T00:04:35.370Z,28.60
2023-03-22T00:08:35.392Z,28.59
2023-03-22T00:12:35.401Z,28.58
2023-03-22T00:16:35.411Z,28.53
2023-03-22T00:20:35.360Z,28.52
2023-03-22T00:24:35.334Z,28.56
2023-03-22T00:28:35.386Z,28.55
2023-03-22T00:32:35.359Z,28.54
2023-03-22T00:36:35.340Z,28.52
2023-03-22T00:40:35.346Z,28.53
2023-03-22T00:44:35.339Z,28.51
2023-03-22T00:48:35.354Z,28.50
2023-03-22T00:52:35.356Z,28.48
2023-03-22T00:56:35.346Z,28.46
2023-03-22T01:00:35.346Z,28.47
2023-03-22T01:04:35.388Z,28.45
2023-03-22T01:08:35.447Z,28.43
2023-03-22T01:12:35.360Z,28.40
2023-03-22T01:16:35.394Z,28.38
2023-03-22T01:20:35.368Z,28.38
2023-03-22T01:24:35.391Z,28.37
2023-03-22T01:28:35.383Z,28.34
2023-03-22T01:32:35.413Z,28.28
2023-03-22T01:36:35.395Z,28.27
2023-03-22T01:40:35.425Z,28.24
2023-03-22T01:44:35.394Z,28.24
2023-03-22T01:48:35.436Z,28.20
2023-03-22T01:52:35.488Z,28.15
2023-03-22T01:56:35.463Z,28.10
2023-03-22T02:00:35.476Z,28.09
2023-03-22T02:04:35.522Z,28.06
2023-03-22T02:08:35.532Z,28.03
2023-03-22T02:12:35.508Z,28.02
2023-03-22T02:16:35.506Z,28.01
2023-03-22T02:20:35.483Z,27.98
2023-03-22T02:24:35.476Z,27.97
2023-03-22T02:28:35.508Z,27.96
2023-03-22T02:32:35.462Z,27.93
2023-03-22T02:36:35.486Z,27.87
2023-03-22T02:40:35.474Z,27.85
2023-03-22T02:44:35.480Z,27.83
2023-03-22T02:48:35.455Z,27.84
2023-03-22T02:52:35.480Z,27.79
2023-03-22T02:56:35.492Z,27.73
2023-03-22T03:00:35.508Z,27.76
2023-03-22T03:04:35.541Z,27.70
2023-03-22T03:08:35.530Z,27.72
2023-03-22T03:12:35.555Z,27.70
2023-03-22T03:16:35.719Z,27.68
2023-03-22T03:20:35.560Z,27.65
2023-03-22T03:24:35.595Z,27.62
2023-03-22T03:28:35.586Z,27.58
2023-03-22T03:32:35.587Z,27.58
2023-03-22T03:36:35.603Z,27.55
2023-03-22T03:40:35.636Z,27.54
2023-03-22T03:44:35.621Z,27.52
2023-03-22T03:48:35.634Z,27.47
2023-03-22T03:52:35.669Z,27.43
2023-03-22T03:56:35.678Z,27.41
2023-03-22T04:00:35.694Z,27.38
2023-03-22T04:04:35.759Z,27.40
2023-03-22T04:08:35.705Z,27.30
2023-03-22T04:12:35.727Z,27.31
2023-03-22T04:16:35.696Z,27.27
2023-03-22T04:20:35.760Z,27.25
2023-03-22T04:24:35.684Z,27.16
2023-03-22T04:28:35.660Z,27.11
2023-03-22T04:32:35.673Z,27.12
2023-03-22T04:36:35.663Z,27.09
2023-03-22T04:40:35.666Z,27.03
2023-03-22T04:44:35.680Z,27.04
2023-03-22T04:48:35.728Z,26.94
2023-03-22T04:52:35.756Z,26.91
2023-03-22T04:56:35.776Z,26.86
2023-03-22T05:00:35.791Z,26.90
2023-03-22T05:04:35.840Z,26.84
2023-03-22T05:08:35.885Z,26.82
2023-03-22T05:12:35.918Z,26.79
2023-03-22T05:16:35.965Z,26.74
2023-03-22T05:20:36.012Z,26.70
2023-03-22T05:24:36.052Z,26.63
2023-03-22T05:28:36.071Z,26.58
2023-03-22T05:32:36.129Z,26.55
2023-03-22T05:36:36.161Z,26.57
2023-03-22T05:40:36.216Z,26.56
2023-03-22T05:44:36.237Z,26.53
2023-03-22T05:48:36.299Z,26.46
2023-03-22T05:52:36.323Z,26.49
2023-03-22T05:56:36.393Z,26.44
2023-03-22T06:00:36.334Z,26.38
2023-03-22T06:04:36.357Z,26.18
2023-03-22T06:08:36.522Z,25.97
2023-03-22T06:12:36.471Z,25.86
2023-03-22T06:16:36.450Z,25.73
2023-03-22T06:20:36.401Z,25.71
2023-03-22T06:24:36.389Z,25.67
2023-03-22T06:28:36.342Z,25.56
2023-03-22T06:32:36.357Z,26.21
2023-03-22T06:36:36.245Z,27.02
2023-03-22T06:40:36.278Z,27.29
2023-03-22T06:44:36.271Z,26.80
2023-03-22T06:48:36.185Z,27.05
2023-03-22T06:52:36.106Z,27.12
2023-03-22T06:56:36.078Z,27.30
2023-03-22T07:00:36.213Z,27.26
2023-03-22T07:04:36.504Z,27.19
2023-03-22T07:08:36.649Z,27.34
2023-03-22T07:12:36.791Z,26.79
2023-03-22T07:16:36.863Z,26.69
2023-03-22T07:20:37.039Z,26.33
2023-03-22T07:24:44.575Z,26.46
2023-03-22T07:28:37.943Z,26.35
2023-03-22T07:32:36.975Z,26.44
2023-03-22T07:36:37.101Z,26.41
2023-03-22T07:40:37.458Z,26.80
2023-03-22T07:44:37.345Z,27.09
2023-03-22T07:48:37.429Z,26.99
2023-03-22T07:52:37.680Z,26.83
2023-03-22T07:56:37.608Z,26.78
2023-03-22T08:00:38.123Z,27.11
2023-03-22T08:04:37.552Z,27.56
2023-03-22T08:08:37.499Z,27.55
2023-03-22T08:12:37.472Z,27.79
2023-03-22T08:16:37.539Z,27.74
2023-03-22T08:20:37.705Z,27.90
2023-03-22T08:24:37.379Z,27.88
2023-03-22T08:28:37.542Z,27.47
2023-03-22T08:32:37.844Z,27.95
2023-03-22T08:36:37.352Z,27.32
2023-03-22T08:40:37.878Z,27.32
2023-03-22T08:44:37.367Z,27.13
2023-03-22T08:48:37.503Z,27.29
2023-03-22T08:52:37.605Z,27.34
2023-03-22T08:56:37.745Z,27.15
2023-03-22T09:00:48.191Z,27.64
2023-03-22T09:04:38.878Z,27.12
2023-03-22T09:08:37.831Z,27.39
2023-03-22T09:12:38.441Z,26.95
2023-03-22T09:16:38.463Z,26.78
2023-03-22T09:20:38.565Z,26.78
2023-03-22T09:24:38.330Z,27.09
2023-03-22T09:28:38.582Z,27.04
2023-03-22T09:32:38.617Z,26.92
2023-03-22T09:36:38.812Z,26.75
2023-03-22T09:40:39.361Z,26.70
2023-03-22T09:44:39.196Z,27.02
2023-03-22T09:48:39.853Z,26.88
2023-03-22T09:52:39.557Z,26.83
2023-03-22T09:56:39.893Z,26.82
2023-03-22T10:00:39.836Z,26.65
2023-03-22T10:04:39.878Z,26.73
2023-03-22T10:08:39.789Z,26.44
2023-03-22T10:12:39.793Z,26.30
2023-03-22T10:16:39.799Z,26.42
2023-03-22T10:20:39.787Z,26.24
2023-03-22T10:24:40.877Z,26.21
2023-03-22T10:28:40.056Z,26.93
2023-03-22T10:32:54.760Z,27.07
2023-03-22T10:36:41.037Z,26.79
2023-03-22T10:40:39.941Z,26.75
2023-03-22T10:44:40.375Z,26.67
2023-03-22T10:48:40.017Z,26.67
2023-03-22T10:52:40.189Z,26.60
2023-03-22T10:56:40.474Z,26.67
2023-03-22T11:00:42.332Z,26.86
2023-03-22T11:04:40.341Z,26.70
2023-03-22T11:08:40.301Z,26.63
2023-03-22T11:12:40.429Z,26.39
2023-03-22T11:16:40.238Z,26.13
2023-03-22T11:20:40.643Z,26.70
2023-03-22T11:24:40.149Z,26.08
2023-03-22T11:28:40.152Z,26.30
2023-03-22T11:32:40.158Z,26.27
2023-03-22T11:36:40.042Z,26.26
2023-03-22T11:40:40.334Z,26.31
2023-03-22T11:44:39.983Z,26.30
2023-03-22T11:48:40.027Z,26.18
2023-03-22T11:52:39.937Z,26.23
2023-03-22T11:56:39.863Z,25.94
2023-03-22T12:00:39.831Z,25.89
2023-03-22T12:04:39.878Z,25.98
2023-03-22T12:08:39.910Z,25.65
2023-03-22T12:12:39.740Z,25.84
2023-03-22T12:16:39.970Z,25.25
2023-03-22T12:20:40.131Z,25.22
2023-03-22T12:24:40.798Z,25.56
2023-03-22T12:28:39.778Z,25.66
2023-03-22T12:32:39.817Z,25.18
2023-03-22T12:36:39.880Z,24.23
2023-03-22T12:40:40.363Z,23.92
2023-03-22T12:44:40.070Z,25.53
2023-03-22T12:48:40.240Z,25.85
2023-03-22T12:52:45.733Z,25.99
2023-03-22T12:56:41.224Z,25.92
2023-03-22T13:00:40.437Z,25.86
2023-03-22T13:04:40.194Z,25.71
2023-03-22T13:08:40.510Z,25.71
2023-03-22T13:12:40.454Z,25.46
2023-03-22T13:16:40.469Z,25.46
2023-03-22T13:20:40.821Z,25.33
2023-03-22T13:24:40.425Z,25.42
2023-03-22T13:28:40.542Z,25.33
2023-03-22T13:32:40.652Z,25.23
2023-03-22T13:36:40.748Z,25.27
2023-03-22T13:40:40.983Z,24.99
2023-03-22T13:44:40.949Z,25.05
2023-03-22T13:48:41.155Z,25.20
2023-03-22T13:52:41.149Z,25.04
2023-03-22T13:56:41.277Z,25.02
2023-03-22T14:00:41.620Z,24.89
2023-03-22T14:04:41.441Z,24.94
2023-03-22T14:08:41.539Z,24.89
2023-03-22T14:12:41.636Z,25.01
2023-03-22T14:16:41.757Z,24.90
2023-03-22T14:20:41.941Z,24.91
2023-03-22T14:49:43.435Z,24.64
2023-03-22T14:53:43.699Z,24.60
2023-03-22T14:57:43.696Z,24.65
2023-03-22T15:01:43.352Z,24.61
2023-03-22T15:05:43.675Z,24.45
2023-03-22T15:09:43.282Z,24.60
2023-03-22T15:13:43.213Z,24.58
2023-03-22T15:17:43.232Z,24.60
2023-03-22T15:21:43.156Z,24.57
2023-03-22T15:25:43.145Z,24.53
2023-03-22T15:29:43.105Z,24.60
2023-03-22T15:33:43.055Z,24.65
2023-03-22T15:37:43.010Z,24.65
2023-03-22T15:41:43.421Z,24.70
2023-03-22T15:45:43.365Z,24.68
2023-03-22T15:49:43.364Z,24.75
2023-03-22T15:53:43.553Z,24.75
2023-03-22T15:57:43.714Z,24.82
2023-03-22T16:01:43.879Z,24.85
2023-03-22T16:05:44.091Z,24.90
2023-03-22T16:09:44.254Z,24.90
2023-03-22T16:13:44.474Z,24.95
2023-03-22T16:17:44.634Z,25.02
2023-03-22T16:21:44.833Z,25.05
2023-03-22T16:25:45.234Z,25.10
2023-03-22T16:29:45.203Z,25.13
2023-03-22T16:33:45.377Z,25.25
2023-03-22T16:37:45.531Z,25.21
2023-03-22T16:41:45.681Z,25.41
2023-03-22T16:45:45.879Z,25.37
2023-03-22T16:49:46.001Z,25.40
2023-03-22T16:53:46.147Z,25.40
2023-03-22T16:57:46.319Z,25.42
2023-03-22T17:01:46.543Z,25.54
2023-03-22T17:05:46.663Z,25.47
2023-03-22T17:09:46.817Z,25.47
2023-03-22T17:13:47.034Z,25.65
2023-03-22T17:17:47.378Z,25.51
2023-03-22T17:21:47.321Z,25.53
2023-03-22T17:25:47.496Z,25.46
2023-03-22T17:29:47.664Z,25.45
2023-03-22T17:33:47.893Z,25.39
2023-03-22T17:37:49.337Z,25.41
2023-03-22T17:41:48.320Z,25.45
2023-03-22T17:46:29.236Z,25.42
2023-03-22T17:49:49.444Z,25.41
2023-03-22T17:54:30.792Z,25.46
2023-03-22T18:01:48.387Z,25.48
2023-03-22T18:05:48.321Z,25.53
2023-03-22T18:09:48.305Z,25.56
2023-03-22T18:13:52.172Z,25.63
2023-03-22T18:17:49.220Z,25.68
2023-03-22T18:21:48.169Z,25.70
2023-03-22T18:25:48.153Z,25.73
2023-03-22T18:29:48.144Z,25.78
2023-03-22T18:33:48.066Z,25.81
2023-03-22T18:41:49.129Z,25.88
2023-03-22T18:45:56.930Z,25.93
2023-03-22T18:49:48.932Z,26.03
2023-03-22T18:53:47.930Z,26.08
2023-03-22T18:57:47.891Z,26.10
2023-03-22T19:01:52.492Z,26.11
2023-03-22T19:05:49.262Z,26.14
2023-03-22T19:09:48.233Z,26.17
2023-03-22T19:14:35.039Z,26.22
2023-03-22T19:17:48.974Z,26.23
2023-03-22T19:21:48.239Z,26.26
2023-03-22T19:25:48.238Z,26.27
2023-03-22T19:29:48.267Z,26.30
2023-03-22T19:33:55.841Z,26.34
2023-03-22T19:37:49.248Z,26.35
2023-03-22T19:42:03.554Z,26.39
2023-03-22T19:45:49.249Z,26.37
2023-03-22T19:49:47.939Z,26.39
2023-03-22T19:54:22.382Z,26.43
2023-03-22T19:57:48.864Z,26.43
2023-03-22T20:01:47.890Z,26.44
2023-03-22T20:05:50.873Z,26.44
2023-03-22T20:09:47.804Z,26.46
2023-03-22T20:13:47.757Z,26.46
2023-03-22T20:17:47.745Z,26.47
2023-03-22T20:21:47.697Z,26.48
2023-03-22T20:25:47.661Z,26.47
2023-03-22T20:29:47.629Z,26.46
2023-03-22T20:33:47.591Z,26.47
2023-03-22T20:37:47.552Z,26.51
2023-03-22T20:41:47.730Z,26.51
2023-03-22T20:45:48.016Z,26.53
2023-03-22T20:49:47.912Z,26.52
2023-03-22T20:53:47.891Z,26.54
2023-03-22T20:57:47.838Z,26.52
2023-03-22T21:01:47.840Z,26.53
2023-03-22T21:05:47.788Z,26.55
2023-03-22T21:09:47.748Z,26.51
2023-03-22T21:13:47.706Z,26.50
2023-03-22T21:17:47.858Z,26.49
2023-03-22T21:21:49.572Z,26.50
2023-03-22T21:25:47.609Z,26.50
2023-03-22T21:29:47.581Z,26.50
2023-03-22T21:33:47.548Z,26.51
2023-03-22T21:37:47.517Z,26.51
2023-03-22T21:41:47.481Z,26.48
2023-03-22T21:45:47.528Z,26.49
2023-03-22T21:49:47.428Z,26.52
2023-03-22T21:53:47.371Z,26.53
2023-03-22T21:57:47.352Z,26.57
2023-03-22T22:01:47.387Z,26.57
2023-03-22T22:05:47.503Z,26.58
2023-03-22T22:09:47.596Z,26.56
2023-03-22T22:13:47.747Z,26.59
2023-03-22T22:17:47.885Z,26.58
2023-03-22T22:21:48.025Z,26.58
2023-03-22T22:25:48.156Z,26.60
2023-03-22T22:29:48.265Z,26.60
2023-03-22T22:33:48.338Z,26.62
2023-03-22T22:37:48.464Z,26.60
2023-03-22T22:41:48.612Z,26.61
2023-03-22T22:45:48.835Z,26.59
2023-03-22T22:49:48.955Z,26.59
2023-03-22T22:53:49.148Z,26.59
2023-03-22T22:57:49.276Z,26.59
2023-03-22T23:01:49.347Z,26.57
2023-03-22T23:05:49.433Z,26.57
2023-03-22T23:09:49.501Z,26.57
2023-03-22T23:13:49.595Z,26.57
2023-03-22T23:17:53.564Z,26.59
2023-03-22T23:21:50.696Z,26.58
2023-03-22T23:25:49.655Z,26.58
2023-03-22T23:29:49.853Z,26.60
2023-03-22T23:33:49.659Z,26.61
2023-03-22T23:37:49.687Z,26.60
2023-03-22T23:41:49.788Z,26.61
2023-03-22T23:45:49.898Z,26.63
2023-03-22T23:49:49.986Z,26.63
2023-03-22T23:53:50.135Z,26.64
2023-03-22T23:57:50.283Z,26.63
